Latest Weather Observations for Middle Point

IDD60901

Issued at 8:25 pm CST Monday 21 April 2014 (issued every 10 minutes, with the page automatically refreshed every 10 minutes)

About weather observations | Map of Darwin area stations | Latest observations for Darwin area | Other Formats
Station Details ID: 014041 Name: MIDDLE POINT Lat: -12.61 Lon: 131.30 Height: 14.1 m
Data from the previous 72 hours. | See also: Recent months at Middle Point
Date/Time
CST
Tmp

°C
App
Tmp
°C
Dew
Point
°C
Rel
Hum
%
Delta-T

°C
Wind Press
QNH
hPa
Press
MSL
hPa
Rain
since
9 am
mm
Dir
 
Spd
km/h
Gust
km/h
Spd
kts
Gust
kts
21/08:00pm 26.2 30.3 22.9 82 2.2 NNW 6 7 3 4 1009.6 - 0.0
21/07:30pm 26.5 30.2 22.6 79 2.6 N 7 9 4 5 1009.5 1009.4 0.0
21/07:00pm 27.0 30.4 22.0 74 3.4 N 7 9 4 5 1009.2 - 0.0
21/06:30pm 28.6 31.9 21.9 67 4.5 NNE 7 9 4 5 1009.0 1008.9 0.0
21/06:00pm 30.1 33.4 21.5 60 5.8 NE 6 7 3 4 1008.8 1008.7 0.0
21/05:30pm 31.8 34.2 20.1 50 7.8 NNE 7 11 4 6 1008.6 1008.5 0.0
21/05:00pm 32.8 33.9 18.9 43 9.1 NE 11 17 6 9 1008.3 - 0.0
21/04:30pm 33.3 35.0 19.4 44 9.2 E 9 15 5 8 1008.2 1008.1 0.0
21/04:00pm 33.3 33.4 18.3 41 9.7 E 15 20 8 11 1008.1 - 0.0
21/03:30pm 33.4 33.4 17.1 37 10.4 E 13 17 7 9 1008.1 1008.0 0.0
21/03:00pm 32.9 34.2 17.5 39 9.9 ESE 7 13 4 7 1008.2 1008.1 0.0
21/02:30pm 33.3 33.5 19.4 44 9.2 ESE 17 24 9 13 1008.4 1008.3 0.0
21/02:00pm 33.1 33.3 18.5 42 9.5 ESE 15 19 8 10 1008.8 - 0.0
21/01:30pm 32.6 32.7 18.4 43 9.2 E 15 22 8 12 1009.2 1009.1 0.0
21/01:00pm 33.1 32.9 18.5 42 9.5 E 17 22 9 12 1009.3 - 0.0
21/12:30pm 32.8 32.8 18.2 42 9.5 E 15 20 8 11 1009.6 1009.5 0.0
21/12:00pm 32.1 31.1 17.6 42 9.3 E 19 22 10 12 1010.1 1010.0 0.0
21/11:30am 32.1 31.2 18.3 44 8.9 E 20 32 11 17 1010.4 1010.3 0.0
21/11:00am 31.4 30.3 18.7 46 8.2 E 22 32 12 17 1010.7 - 0.0
21/10:30am 30.8 30.9 19.2 50 7.6 E 17 26 9 14 1011.0 1010.8 0.0
21/10:00am 30.1 30.4 20.4 56 6.4 ESE 19 26 10 14 1011.1 - 0.0
21/09:30am 28.9 30.6 20.9 62 5.3 ESE 13 17 7 9 1010.9 1010.7 0.0
21/09:00am 27.8 30.9 22.1 71 3.8 SE 9 13 5 7 1010.9 1010.7 0.0
21/08:30am 26.1 29.7 22.4 80 2.5 SSE 7 9 4 5 1010.7 1010.6 0.0
21/08:00am 24.8 28.9 22.9 89 1.3 SSE 6 7 3 4 1010.5 - 0.0
21/07:30am 23.1 26.7 22.1 94 0.7 S 6 7 3 4 1010.2 1010.1 0.0
21/07:00am 21.8 24.6 20.4 92 0.9 SSW 6 7 3 4 1009.9 - 0.0
21/06:30am 21.8 25.3 20.3 91 1.0 SE 2 2 1 1 1009.4 1009.3 0.0
21/06:00am 22.3 25.6 20.8 91 1.0 SE 4 6 2 3 1009.1 1009.0 0.0
21/05:30am 22.3 26.4 20.8 91 1.0 CALM 0 0 0 0 1009.0 1008.9 0.0
21/05:00am 22.5 26.7 21.0 91 1.0 CALM 0 0 0 0 1009.0 - 0.0
21/04:30am 23.0 26.8 20.9 88 1.4 SSE 2 4 1 2 1009.0 1008.9 0.0
21/04:00am 23.6 27.1 21.1 86 1.6 SSE 4 6 2 3 1009.0 - 0.0
21/03:30am 23.8 27.0 21.3 86 1.6 SE 6 7 3 4 1009.1 1009.0 0.0
21/03:00am 24.0 27.4 21.7 87 1.5 SE 6 7 3 4 1008.9 1008.8 0.0
21/02:30am 24.3 27.6 21.8 86 1.7 SE 7 7 4 4 1009.1 1009.0 0.0
21/02:00am 25.0 28.9 22.5 86 1.7 SE 6 6 3 3 1009.4 - 0.0
21/01:30am 25.1 29.5 22.8 87 1.6 SE 4 6 2 3 1009.8 1009.7 0.0
21/01:00am 25.2 29.5 22.7 86 1.7 SE 4 6 2 3 1010.0 - 0.0
21/12:30am 25.2 29.4 22.5 85 1.8 ENE 4 4 2 2 1010.2 1010.1 0.0
21/12:00am 25.4 28.9 22.1 82 2.2 NE 7 11 4 6 1010.3 1010.2 0.0
 
Date/Time
CST
Tmp

°C
App
Tmp
°C
Dew
Point
°C
Rel
Hum
%
Delta-T

°C
Wind Press
QNH
hPa
Press
MSL
hPa
Rain
since
9 am
mm
Dir
 
Spd
km/h
Gust
km/h
Spd
kts
Gust
kts
20/11:30pm 26.1 29.8 22.6 81 2.4 ENE 7 9 4 5 1010.4 1010.3 0.0
20/11:00pm 26.7 30.1 23.4 82 2.3 ENE 11 17 6 9 1010.5 - 0.0
20/10:30pm 26.0 30.3 24.2 90 1.2 E 9 13 5 7 1010.6 1010.5 0.0
20/10:00pm 25.6 30.8 23.5 88 1.4 N 2 4 1 2 1010.0 - 0.0
20/09:30pm 26.0 31.4 23.9 88 1.4 N 2 4 1 2 1010.0 1009.9 0.0
20/09:00pm 26.1 30.7 23.8 87 1.6 N 6 6 3 3 1009.7 1009.6 0.0
20/08:30pm 26.6 31.4 24.1 86 1.7 N 6 7 3 4 1009.5 1009.4 0.0
20/08:00pm 27.0 31.9 23.7 82 2.3 N 4 6 2 3 1009.3 - 0.0
20/07:30pm 27.3 32.0 24.0 82 2.3 N 6 7 3 4 1009.0 1008.9 0.0
20/07:00pm 28.1 33.9 23.9 78 2.9 CALM 0 0 0 0 1008.7 - 0.0
20/06:30pm 29.6 34.7 23.3 69 4.3 E 2 2 1 1 1008.4 1008.3 0.0
20/06:00pm 30.3 33.8 21.9 60 5.7 E 6 7 3 4 1008.2 1008.1 0.0
20/05:30pm 30.9 34.2 21.4 57 6.4 E 6 7 3 4 1007.8 1007.7 0.0
20/05:00pm 31.8 33.3 19.8 49 7.9 E 11 19 6 10 1007.5 - 0.0
20/04:30pm 33.2 34.3 19.7 45 8.9 E 13 20 7 11 1007.3 1007.2 0.0
20/04:00pm 33.1 33.7 20.3 47 8.5 E 17 26 9 14 1007.1 - 0.0
20/03:30pm 33.2 34.3 19.7 45 8.9 E 13 22 7 12 1007.1 1007.0 0.0
20/03:00pm 33.2 34.1 20.0 45 8.8 E 15 22 8 12 1007.4 1007.3 0.0
20/02:30pm 33.2 33.0 19.3 44 9.2 E 19 26 10 14 1007.7 1007.6 0.0
20/02:00pm 32.9 33.6 20.4 47 8.3 ESE 17 26 9 14 1008.0 - 0.0
20/01:30pm 32.5 32.7 20.1 48 8.2 ESE 19 28 10 15 1008.6 1008.5 0.0
20/01:00pm 32.3 33.3 20.2 48 8.0 ESE 15 24 8 13 1009.0 - 0.0
20/12:30pm 31.8 31.8 19.8 49 7.9 E 19 26 10 14 1009.2 1009.1 0.0
20/12:00pm 31.7 31.7 19.7 49 7.9 E 19 26 10 14 1009.6 1009.5 0.0
20/11:30am 31.7 32.5 20.6 51 7.4 E 17 24 9 13 1010.2 1010.1 0.0
20/11:00am 31.0 32.2 21.5 57 6.4 ESE 17 20 9 11 1010.7 - 0.0
20/10:30am 30.3 30.8 21.1 58 6.2 ESE 20 30 11 16 1011.1 1010.9 0.0
20/10:00am 29.4 31.3 21.4 62 5.4 ESE 13 19 7 10 1011.2 - 0.0
20/09:30am 28.1 29.8 20.9 65 4.8 ESE 13 19 7 10 1011.1 1010.9 0.0
20/09:00am 27.0 29.1 21.7 73 3.5 SE 13 19 7 10 1010.9 1010.7 0.0
20/08:30am 25.9 28.6 22.2 80 2.5 SSE 11 17 6 9 1010.9 1010.7 0.0
20/08:00am 24.7 27.9 22.4 87 1.5 SSE 9 13 5 7 1010.6 - 0.0
20/07:30am 23.4 26.9 22.2 93 0.8 SSE 7 7 4 4 1010.1 1010.0 0.0
20/07:00am 22.4 25.6 21.2 93 0.8 SSE 6 6 3 3 1009.9 - 0.0
20/06:30am 22.5 25.6 21.1 92 0.9 S 6 6 3 3 1009.5 1009.4 0.0
20/06:00am 22.4 25.6 21.2 93 0.8 SSE 6 6 3 3 1009.3 1009.2 0.0
20/05:30am 22.3 25.3 20.9 92 0.9 SSE 6 7 3 4 1009.0 1008.9 0.0
20/05:00am 22.3 26.3 20.6 90 1.1 CALM 0 0 0 0 1008.8 - 0.0
20/04:30am 22.8 26.7 21.1 90 1.1 SE 2 4 1 2 1008.9 1008.8 0.0
20/04:00am 23.0 26.3 21.5 91 1.0 SSE 6 7 3 4 1008.8 - 0.0
20/03:30am 22.9 26.0 21.4 91 1.0 S 7 9 4 5 1008.7 1008.6 0.0
20/03:00am 23.1 26.1 21.2 89 1.2 SSE 7 9 4 5 1008.9 1008.8 0.0
20/02:30am 23.3 25.5 21.2 88 1.4 S 11 17 6 9 1009.1 1009.0 0.0
20/02:00am 23.7 25.6 21.4 87 1.5 SSE 13 19 7 10 1009.4 - 0.0
20/01:30am 23.6 25.8 21.1 86 1.6 SSE 11 13 6 7 1009.7 1009.6 0.0
20/01:00am 24.0 26.3 21.3 85 1.8 SE 11 15 6 8 1010.2 - 0.0
20/12:30am 24.4 27.3 21.7 85 1.8 SSE 9 13 5 7 1010.6 1010.5 0.0
20/12:00am 24.5 28.5 22.0 86 1.7 ESE 4 6 2 3 1011.0 1010.8 0.0
 
Date/Time
CST
Tmp

°C
App
Tmp
°C
Dew
Point
°C
Rel
Hum
%
Delta-T

°C
Wind Press
QNH
hPa
Press
MSL
hPa
Rain
since
9 am
mm
Dir
 
Spd
km/h
Gust
km/h
Spd
kts
Gust
kts
19/11:30pm 24.6 27.9 21.5 83 2.1 E 6 7 3 4 1011.1 1010.9 0.0
19/11:00pm 25.0 27.5 21.7 82 2.2 ESE 11 15 6 8 1011.3 - 0.0
19/10:30pm 25.3 28.3 22.0 82 2.2 E 9 15 5 8 1011.6 1011.4 0.0
19/10:00pm 25.5 28.4 21.8 80 2.5 E 9 15 5 8 1011.7 - 0.0
19/09:30pm 25.7 28.6 21.8 79 2.6 ENE 9 13 5 7 1011.8 1011.6 0.0
19/09:00pm 26.0 28.3 22.7 82 2.2 ENE 15 22 8 12 1011.1 1010.9 0.0
19/08:30pm 25.4 28.9 22.9 86 1.7 NNE 9 15 5 8 1010.6 1010.5 0.0
19/08:00pm 25.3 28.6 22.6 85 1.8 NNE 9 15 5 8 1010.2 - 0.0
19/07:30pm 25.7 27.6 22.8 84 2.0 NE 17 22 9 12 1010.2 1010.1 0.0
19/07:00pm 25.8 28.4 22.7 83 2.1 NE 13 19 7 10 1009.2 - 0.0
19/06:30pm 26.4 29.0 22.7 80 2.5 NNE 13 20 7 11 1008.8 1008.7 0.0
19/06:00pm 27.1 31.0 22.5 76 3.1 N 6 7 3 4 1008.5 1008.4 0.0
19/05:30pm 28.1 30.8 22.8 73 3.6 NE 13 19 7 10 1008.2 1008.1 0.0
19/05:00pm 26.6 26.7 21.8 75 3.2 S 24 32 13 17 1007.4 - 0.0
19/04:30pm 31.3 31.2 21.5 56 6.6 SE 24 41 13 22 1007.4 1007.3 0.0
19/04:00pm 33.0 34.5 20.5 47 8.3 ENE 13 17 7 9 1006.9 - 0.0
19/03:30pm 33.5 35.4 20.6 46 8.7 E 11 17 6 9 1006.9 1006.8 0.0
19/03:00pm 33.4 35.1 20.9 48 8.4 E 13 20 7 11 1007.0 1006.9 0.0
19/02:30pm 33.1 35.7 21.9 51 7.6 E 11 22 6 12 1007.4 1007.3 0.0
19/02:00pm 32.4 34.3 21.3 52 7.5 ESE 13 19 7 10 1007.9 - 0.0
19/01:30pm 32.8 34.3 22.0 53 7.4 ESE 17 26 9 14 1008.3 1008.2 0.0
19/01:00pm 32.5 34.4 21.4 52 7.5 E 13 20 7 11 1008.8 - 0.0
19/12:30pm 32.1 34.5 22.2 56 6.8 ESE 13 22 7 12 1009.3 1009.2 0.0
19/12:00pm 31.5 33.7 21.9 56 6.5 E 13 24 7 13 1010.0 1009.9 0.0
19/11:30am 31.6 34.6 22.6 59 6.2 E 11 20 6 11 1010.7 1010.6 0.0
19/11:00am 30.3 32.8 21.7 60 5.8 E 11 17 6 9 1011.3 - 0.0
19/10:30am 29.6 32.2 23.3 69 4.3 E 15 20 8 11 1011.7 1011.5 0.0
19/10:00am 28.4 31.1 22.9 72 3.7 ESE 13 19 7 10 1011.7 - 0.0
19/09:30am 27.7 31.1 23.3 77 3.0 SE 11 15 6 8 1011.6 1011.4 0.0
19/09:00am 26.6 30.1 22.9 80 2.5 ESE 9 13 5 7 1011.5 1011.3 5.0
19/08:30am 25.8 29.7 22.9 84 2.0 SE 7 11 4 6 1011.5 1011.3 5.0
19/08:00am 24.8 28.9 22.9 89 1.3 SE 6 7 3 4 1011.4 - 5.0
19/07:30am 23.5 28.5 22.5 94 0.7 CALM 0 0 0 0 1011.4 1011.2 5.0
19/07:00am 22.8 26.9 21.6 93 0.8 SE 2 4 1 2 1011.2 - 5.0
19/06:30am 22.9 26.3 21.7 93 0.8 SE 6 6 3 3 1011.0 1010.8 5.0
19/06:00am 23.0 27.2 21.8 93 0.8 SE 2 4 1 2 1010.6 1010.5 5.0
19/05:30am 23.3 26.8 22.1 93 0.8 SE 7 7 4 4 1010.5 1010.4 4.8
19/05:00am 23.5 27.1 22.3 93 0.8 SE 7 9 4 5 1010.3 - 4.8
19/04:30am 23.3 27.0 22.3 94 0.7 SSE 6 7 3 4 1010.3 1010.2 4.8
19/04:00am 23.0 26.9 21.8 93 0.8 SW 4 7 2 4 1010.1 - 4.8
19/03:30am 23.3 28.0 21.9 92 0.9 CALM 0 0 0 0 1010.0 1009.9 4.8
19/03:00am 23.5 28.3 22.1 92 0.9 CALM 0 2 0 1 1010.1 1010.0 4.8
19/02:30am 23.7 27.8 22.3 92 0.9 ESE 4 6 2 3 1010.5 1010.4 4.8
19/02:00am 23.9 28.9 22.5 92 0.9 CALM 0 0 0 0 1010.9 - 4.8
19/01:30am 24.1 28.1 22.7 92 0.9 SSE 6 11 3 6 1011.0 1010.8 4.8
19/01:00am 24.1 29.2 22.7 92 0.9 CALM 0 0 0 0 1011.3 - 4.8
19/12:30am 24.2 29.4 22.8 92 0.9 CALM 0 0 0 0 1011.6 1011.4 4.8
19/12:00am 24.1 27.9 22.7 92 0.9 ESE 7 9 4 5 1011.7 1011.5 4.8
 
Date/Time
CST
Tmp

°C
App
Tmp
°C
Dew
Point
°C
Rel
Hum
%
Delta-T

°C
Wind Press
QNH
hPa
Press
MSL
hPa
Rain
since
9 am
mm
Dir
 
Spd
km/h
Gust
km/h
Spd
kts
Gust
kts
18/11:30pm 24.2 28.2 22.8 92 0.9 SSE 6 9 3 5 1011.9 1011.7 4.8
18/11:00pm 24.0 28.3 22.6 92 0.9 SE 4 7 2 4 1012.1 - 4.8
18/10:30pm 24.0 27.7 22.6 92 0.9 SE 7 13 4 7 1012.1 1011.9 4.8
18/10:00pm 24.1 27.5 22.7 92 0.9 SE 9 15 5 8 1012.0 - 4.8
18/09:30pm 24.1 27.5 22.7 92 0.9 ESE 9 13 5 7 1012.1 1011.9 4.8
18/09:00pm 24.2 27.5 22.6 91 1.1 SE 9 13 5 7 1012.4 1012.2 4.2
18/08:30pm 24.0 25.1 22.4 91 1.1 SSE 20 33 11 18 1012.3 1012.1 3.2

Latest Capital City Observations: Canberra | Sydney | Melbourne | Brisbane | Adelaide | Perth | Hobart | Darwin

Other Formats:

Comma delimited format used in spreadsheet applications
http://www.bom.gov.au/fwo/IDD60901/IDD60901.95121.axf

JavaScript Object Notation format (JSON) in row-major order
http://www.bom.gov.au/fwo/IDD60901/IDD60901.95121.json